createdAt,value
2022-09-28T00:01:30.694Z,13.86
2022-09-28T00:03:59.754Z,14.22
2022-09-28T00:06:28.993Z,14.10
2022-09-28T00:08:56.503Z,13.81
2022-09-28T00:11:28.227Z,14.05
2022-09-28T00:14:00.180Z,13.96
2022-09-28T00:16:51.705Z,14.00
2022-09-28T00:19:32.233Z,13.72
2022-09-28T00:21:59.209Z,13.69
2022-09-28T00:24:46.607Z,13.52
2022-09-28T00:27:27.343Z,13.70
2022-09-28T00:29:55.113Z,13.62
2022-09-28T00:32:42.649Z,14.23
2022-09-28T00:35:43.622Z,13.79
2022-09-28T00:38:47.636Z,13.41
2022-09-28T00:41:29.674Z,13.35
2022-09-28T00:44:22.809Z,13.31
2022-09-28T00:46:52.834Z,13.30
2022-09-28T00:49:23.837Z,13.27
2022-09-28T00:51:50.853Z,13.08
2022-09-28T00:54:17.770Z,13.11
2022-09-28T00:56:48.481Z,13.49
2022-09-28T00:59:16.132Z,13.16
2022-09-28T01:01:43.092Z,13.64
2022-09-28T01:04:31.641Z,13.45
2022-09-28T01:07:13.283Z,13.81
2022-09-28T01:09:40.753Z,13.49
2022-09-28T01:12:08.034Z,13.92
2022-09-28T01:14:35.203Z,13.58
2022-09-28T01:17:16.076Z,13.82
2022-09-28T01:20:23.720Z,13.78
2022-09-28T01:23:41.653Z,13.77
2022-09-28T01:26:22.214Z,13.79
2022-09-28T01:28:53.632Z,13.65
2022-09-28T01:31:45.718Z,13.76
2022-09-28T01:34:35.854Z,13.79
2022-09-28T01:37:06.726Z,13.53
2022-09-28T01:39:39.611Z,13.71
2022-09-28T01:42:12.909Z,13.70
2022-09-28T01:44:45.711Z,13.72
2022-09-28T01:47:15.424Z,13.98
2022-09-28T01:50:23.671Z,13.74
2022-09-28T01:53:33.678Z,13.79
2022-09-28T01:56:56.683Z,13.35
2022-09-28T01:59:42.008Z,12.69
2022-09-28T02:02:20.831Z,13.21
2022-09-28T02:05:10.618Z,13.84
2022-09-28T02:07:45.386Z,13.77
2022-09-28T02:10:24.894Z,13.72
2022-09-28T02:12:59.050Z,13.58
2022-09-28T02:15:30.566Z,13.90
2022-09-28T02:18:00.221Z,13.71
2022-09-28T02:20:29.673Z,13.88
2022-09-28T02:23:17.672Z,13.29
2022-09-28T02:26:09.132Z,13.65
2022-09-28T02:28:36.766Z,13.46
2022-09-28T02:31:23.771Z,13.49
2022-09-28T02:34:04.510Z,13.34
2022-09-28T02:36:33.319Z,13.08
2022-09-28T02:39:02.426Z,12.84
2022-09-28T02:42:15.695Z,13.24
2022-09-28T02:45:16.445Z,13.46
2022-09-28T02:48:02.410Z,13.36
2022-09-28T02:51:02.439Z,13.16
2022-09-28T02:53:41.558Z,13.31
2022-09-28T02:56:18.008Z,13.11
2022-09-28T02:59:21.690Z,12.84
2022-09-28T03:01:48.864Z,13.36
2022-09-28T03:04:44.340Z,12.99
2022-09-28T03:07:39.536Z,13.28
2022-09-28T03:10:19.543Z,12.80
2022-09-28T03:12:48.924Z,13.30
2022-09-28T03:15:21.351Z,13.20
2022-09-28T03:17:48.446Z,12.81
2022-09-28T03:20:16.026Z,13.17
2022-09-28T03:26:27.700Z,12.72
2022-09-28T03:29:08.225Z,13.02
2022-09-28T03:31:54.761Z,12.83
2022-09-28T03:34:55.726Z,12.87
2022-09-28T03:37:36.863Z,13.20
2022-09-28T03:40:04.965Z,13.09
2022-09-28T03:42:35.871Z,13.08
2022-09-28T03:45:02.983Z,13.19
2022-09-28T03:47:30.002Z,12.69
2022-09-28T03:50:18.739Z,12.86
2022-09-28T03:53:03.073Z,13.21
2022-09-28T03:55:31.182Z,12.82
2022-09-28T03:57:58.193Z,12.88
2022-09-28T04:00:25.484Z,12.69
2022-09-28T04:02:54.128Z,13.19
2022-09-28T04:05:21.104Z,12.89
2022-09-28T04:07:47.951Z,13.22
2022-09-28T04:10:15.234Z,12.82
2022-09-28T04:12:42.565Z,12.87
2022-09-28T04:15:10.237Z,12.59
2022-09-28T04:17:40.069Z,12.98
2022-09-28T04:20:33.749Z,12.88
2022-09-28T04:23:38.786Z,12.90
2022-09-28T04:26:22.362Z,12.85
2022-09-28T04:29:08.569Z,12.96
2022-09-28T04:31:55.466Z,13.03
2022-09-28T04:35:05.853Z,12.99
2022-09-28T04:37:46.428Z,12.91
2022-09-28T04:40:13.408Z,13.23
2022-09-28T04:42:40.486Z,12.89
2022-09-28T04:45:07.898Z,13.30
2022-09-28T04:47:38.706Z,13.02
2022-09-28T04:50:18.280Z,13.48
2022-09-28T04:53:04.241Z,13.54
2022-09-28T04:55:32.644Z,13.11
2022-09-28T04:58:03.385Z,13.31
2022-09-28T05:00:50.811Z,13.35
2022-09-28T05:03:53.562Z,13.11
2022-09-28T05:06:30.628Z,13.24
2022-09-28T05:09:22.777Z,13.30
2022-09-28T05:12:03.855Z,13.41
2022-09-28T05:14:50.830Z,13.09
2022-09-28T05:17:31.890Z,13.75
2022-09-28T05:19:59.128Z,13.41
2022-09-28T05:22:26.324Z,13.38
2022-09-28T05:25:14.781Z,13.63
2022-09-28T05:28:08.971Z,13.79
2022-09-28T05:31:17.955Z,13.47
2022-09-28T05:34:34.815Z,13.46
2022-09-28T05:37:19.401Z,13.72
2022-09-28T05:39:47.063Z,13.48
2022-09-28T05:42:13.982Z,13.64
2022-09-28T05:44:42.571Z,12.83
2022-09-28T05:47:09.608Z,13.29
2022-09-28T05:49:56.830Z,13.75
2022-09-28T05:52:42.524Z,13.70
2022-09-28T05:55:10.458Z,13.94
2022-09-28T05:57:50.798Z,13.81
2022-09-28T06:00:51.836Z,14.05
2022-09-28T06:03:32.341Z,13.95
2022-09-28T06:06:02.433Z,14.23
2022-09-28T06:08:51.814Z,14.14
2022-09-28T06:11:52.908Z,13.92
2022-09-28T06:14:42.639Z,14.26
2022-09-28T06:17:11.073Z,14.18
2022-09-28T06:19:39.079Z,14.15
2022-09-28T06:22:06.026Z,14.24
2022-09-28T06:24:57.839Z,13.96
2022-09-28T06:27:39.296Z,14.11
2022-09-28T06:30:06.777Z,13.88
2022-09-28T06:32:53.873Z,14.25
2022-09-28T06:35:35.491Z,14.47
2022-09-28T06:38:03.232Z,14.69
2022-09-28T06:40:31.617Z,14.18
2022-09-28T06:43:11.698Z,14.77
2022-09-28T06:46:17.932Z,14.14
2022-09-28T06:49:36.856Z,14.90
2022-09-28T06:52:57.263Z,15.05
2022-09-28T06:55:53.753Z,14.81
2022-09-28T06:58:21.504Z,14.41
2022-09-28T07:01:10.889Z,14.96
2022-09-28T07:04:14.607Z,15.33
2022-09-28T07:07:00.159Z,15.13
2022-09-28T07:09:50.323Z,15.40
2022-09-28T07:12:37.343Z,15.47
2022-09-28T07:15:45.836Z,15.41
2022-09-28T07:18:40.933Z,15.37
2022-09-28T07:21:29.018Z,15.43
2022-09-28T07:24:20.867Z,15.73
2022-09-28T07:27:26.806Z,15.73
2022-09-28T07:30:10.482Z,15.12
2022-09-28T07:33:13.913Z,15.75
2022-09-28T07:36:20.878Z,15.68
2022-09-28T07:39:02.451Z,16.04
2022-09-28T07:41:32.753Z,16.03
2022-09-28T07:44:06.090Z,16.10
2022-09-28T07:46:35.833Z,16.53
2022-09-28T07:49:22.539Z,16.09
2022-09-28T07:52:41.878Z,16.22
2022-09-28T07:55:56.273Z,16.56
2022-09-28T07:59:01.913Z,16.37
2022-09-28T08:02:00.613Z,15.76
2022-09-28T08:04:47.936Z,15.87
2022-09-28T08:07:28.826Z,15.51
2022-09-28T08:10:03.024Z,15.54
2022-09-28T08:12:30.034Z,15.77
2022-09-28T08:15:18.147Z,15.69
2022-09-28T08:17:53.425Z,15.95
2022-09-28T08:20:40.886Z,16.13
2022-09-28T08:23:27.903Z,16.24
2022-09-28T08:26:11.068Z,16.42
2022-09-28T08:28:43.200Z,16.28
2022-09-28T08:31:49.913Z,16.43
2022-09-28T08:34:41.943Z,17.34
2022-09-28T08:37:14.733Z,17.17
2022-09-28T08:40:25.114Z,16.85
2022-09-28T08:43:28.733Z,18.03
2022-09-28T08:46:42.893Z,18.06
2022-09-28T08:49:50.340Z,18.20
2022-09-28T08:52:40.989Z,18.07
2022-09-28T08:55:39.458Z,18.07
2022-09-28T08:58:15.038Z,18.35
2022-09-28T09:00:47.455Z,18.74
2022-09-28T09:03:33.971Z,18.58
2022-09-28T09:06:41.156Z,19.16
2022-09-28T09:09:38.356Z,18.98
2022-09-28T09:12:38.262Z,19.86
2022-09-28T09:15:47.755Z,19.49
2022-09-28T09:18:55.913Z,19.33
2022-09-28T09:23:00.947Z,20.33
2022-09-28T09:26:04.951Z,19.89
2022-09-28T09:29:21.045Z,19.48
2022-09-28T09:32:23.338Z,20.52
2022-09-28T09:35:06.559Z,20.16
2022-09-28T09:37:58.567Z,19.75
2022-09-28T09:41:04.878Z,20.33
2022-09-28T09:44:26.852Z,20.40
2022-09-28T09:47:06.229Z,20.66
2022-09-28T09:50:05.463Z,20.42
2022-09-28T09:52:50.260Z,19.78
2022-09-28T09:55:29.788Z,20.14
2022-09-28T09:58:31.644Z,19.84
2022-09-28T10:01:13.272Z,19.90
2022-09-28T10:04:26.261Z,20.34
2022-09-28T10:07:53.258Z,20.39
2022-09-28T10:11:02.996Z,20.48
2022-09-28T10:13:49.939Z,20.15
2022-09-28T10:16:35.808Z,20.35
2022-09-28T10:19:10.906Z,20.52
2022-09-28T10:22:02.582Z,20.96
2022-09-28T10:24:57.945Z,21.53
2022-09-28T10:28:00.968Z,21.74
2022-09-28T10:30:44.370Z,21.14
2022-09-28T10:33:47.002Z,21.16
2022-09-28T10:36:28.137Z,20.02
2022-09-28T10:38:55.982Z,20.57
2022-09-28T10:41:31.834Z,20.55
2022-09-28T10:44:06.696Z,20.21
2022-09-28T10:47:08.135Z,21.01
2022-09-28T10:50:03.013Z,21.72
2022-09-28T10:52:46.265Z,21.94
2022-09-28T10:55:36.205Z,21.51
2022-09-28T10:58:27.031Z,21.23
2022-09-28T11:01:02.324Z,21.21
2022-09-28T11:03:30.461Z,21.73
2022-09-28T11:06:08.741Z,21.37
2022-09-28T11:08:41.525Z,20.95
2022-09-28T11:11:32.016Z,20.61
2022-09-28T11:14:41.088Z,21.06
2022-09-28T11:17:51.011Z,21.09
2022-09-28T11:20:35.605Z,21.16
2022-09-28T11:23:44.011Z,21.10
2022-09-28T11:26:53.998Z,20.68
2022-09-28T11:29:43.984Z,20.96
2022-09-28T11:32:43.083Z,21.16
2022-09-28T11:35:24.886Z,21.17
2022-09-28T11:38:13.011Z,21.29
2022-09-28T11:41:32.592Z,21.05
2022-09-28T11:44:18.816Z,21.22
2022-09-28T11:47:37.055Z,20.78
2022-09-28T11:51:08.051Z,21.35
2022-09-28T11:54:21.217Z,21.61
2022-09-28T11:57:05.265Z,21.82
2022-09-28T11:59:38.823Z,21.54
2022-09-28T12:02:17.887Z,21.46
2022-09-28T12:05:03.081Z,21.20
2022-09-28T12:07:57.038Z,21.52
2022-09-28T12:11:44.033Z,21.95
2022-09-28T12:14:29.573Z,22.01
2022-09-28T12:17:20.413Z,22.44
2022-09-28T12:20:17.181Z,22.15
2022-09-28T12:23:18.068Z,22.42
2022-09-28T12:26:37.281Z,23.00
2022-09-28T12:30:00.105Z,22.31
2022-09-28T12:32:51.315Z,22.52
2022-09-28T12:35:27.500Z,22.91
2022-09-28T12:38:19.233Z,23.08
2022-09-28T12:41:06.732Z,22.88
2022-09-28T12:43:54.633Z,23.68
2022-09-28T12:47:23.063Z,23.98
2022-09-28T12:50:39.094Z,23.37
2022-09-28T12:53:38.944Z,24.17
2022-09-28T12:56:44.793Z,23.44
2022-09-28T12:59:39.393Z,22.96
2022-09-28T13:02:45.110Z,22.69
2022-09-28T13:05:49.493Z,22.06
2022-09-28T13:08:43.482Z,22.23
2022-09-28T13:11:34.012Z,21.58
2022-09-28T13:14:10.087Z,22.32
2022-09-28T13:17:23.108Z,22.83
2022-09-28T13:20:54.366Z,23.31
2022-09-28T13:23:49.137Z,23.17
2022-09-28T13:26:54.115Z,23.15
2022-09-28T13:29:35.091Z,23.33
2022-09-28T13:32:23.151Z,23.86
2022-09-28T13:35:32.118Z,23.48
2022-09-28T13:38:16.104Z,23.38
2022-09-28T13:41:06.046Z,22.43
2022-09-28T13:43:45.379Z,22.93
2022-09-28T13:46:54.082Z,22.15
2022-09-28T13:50:34.111Z,22.28
2022-09-28T13:53:17.414Z,22.28
2022-09-28T13:55:56.868Z,22.53
2022-09-28T13:58:43.906Z,21.77
2022-09-28T14:01:36.201Z,21.62
2022-09-28T14:04:20.635Z,22.26
2022-09-28T14:07:10.146Z,21.96
2022-09-28T14:10:58.097Z,22.17
2022-09-28T14:13:58.843Z,22.79
2022-09-28T14:16:28.824Z,23.11
2022-09-28T14:18:55.885Z,22.71
2022-09-28T14:21:39.324Z,22.85
2022-09-28T14:24:42.118Z,22.77
2022-09-28T14:27:51.527Z,22.89
2022-09-28T14:30:46.323Z,22.34
2022-09-28T14:33:29.483Z,21.77
2022-09-28T14:36:42.590Z,21.65
2022-09-28T14:40:02.315Z,21.79
2022-09-28T14:42:29.849Z,21.47
2022-09-28T14:45:17.117Z,21.94
2022-09-28T14:48:28.151Z,21.96
2022-09-28T14:51:27.152Z,22.12
2022-09-28T14:54:00.409Z,22.49
2022-09-28T14:56:32.621Z,21.64
2022-09-28T14:59:00.665Z,21.63
2022-09-28T15:01:43.144Z,21.83
2022-09-28T15:04:28.376Z,21.51
2022-09-28T15:07:15.229Z,21.92
2022-09-28T15:21:35.126Z,22.25
2022-09-28T15:24:42.158Z,21.93
2022-09-28T15:27:23.341Z,21.85
2022-09-28T15:30:23.223Z,21.88
2022-09-28T15:32:51.184Z,21.81
2022-09-28T15:35:25.076Z,20.37
2022-09-28T15:37:52.864Z,21.68
2022-09-28T15:40:35.654Z,21.64
2022-09-28T15:43:23.659Z,21.54
2022-09-28T15:46:42.211Z,20.63
2022-09-28T15:50:07.226Z,21.42
2022-09-28T15:53:00.992Z,21.28
2022-09-28T15:55:41.666Z,21.27
2022-09-28T15:58:20.609Z,21.18
2022-09-28T16:00:49.818Z,21.14
2022-09-28T16:03:16.939Z,21.29
2022-09-28T16:06:05.621Z,20.00
2022-09-28T16:08:44.438Z,20.16
2022-09-28T16:11:29.119Z,20.47
2022-09-28T16:14:12.450Z,20.29
2022-09-28T16:16:51.308Z,20.41
2022-09-28T16:19:39.232Z,20.17
2022-09-28T16:22:24.487Z,20.58
2022-09-28T16:25:15.251Z,19.89
2022-09-28T16:27:56.324Z,21.20
2022-09-28T16:30:46.374Z,19.96
2022-09-28T16:33:32.808Z,20.33
2022-09-28T16:36:03.543Z,20.41
2022-09-28T16:38:31.791Z,19.79
2022-09-28T16:41:04.069Z,19.51
2022-09-28T16:43:51.273Z,19.48
2022-09-28T16:46:37.634Z,19.45
2022-09-28T16:49:08.507Z,19.40
2022-09-28T16:51:55.286Z,19.08
2022-09-28T16:55:38.832Z,19.56
2022-09-28T16:58:39.294Z,19.76
2022-09-28T17:01:21.097Z,19.65
2022-09-28T17:03:50.224Z,18.54
2022-09-28T17:06:38.304Z,18.81
2022-09-28T17:09:19.550Z,19.20
2022-09-28T17:11:56.311Z,18.08
2022-09-28T17:14:44.326Z,18.75
2022-09-28T17:17:29.885Z,19.23
2022-09-28T17:19:56.963Z,19.28
2022-09-28T17:22:23.966Z,18.90
2022-09-28T17:25:12.802Z,18.94
2022-09-28T17:27:57.629Z,18.53
2022-09-28T17:30:25.964Z,18.44
2022-09-28T17:32:53.123Z,18.35
2022-09-28T17:35:24.689Z,18.64
2022-09-28T17:37:53.070Z,17.50
2022-09-28T17:40:42.361Z,17.55
2022-09-28T17:43:56.519Z,18.76
2022-09-28T17:47:06.676Z,17.86
2022-09-28T17:49:33.709Z,18.39
2022-09-28T17:52:01.101Z,17.63
2022-09-28T17:54:48.299Z,18.29
2022-09-28T17:57:49.398Z,18.21
2022-09-28T18:00:53.270Z,18.35
2022-09-28T18:03:26.823Z,16.79
2022-09-28T18:06:31.323Z,18.06
2022-09-28T18:09:16.033Z,17.99
2022-09-28T18:11:44.568Z,17.95
2022-09-28T18:14:12.042Z,17.88
2022-09-28T18:16:39.441Z,16.87
2022-09-28T18:19:06.874Z,17.46
2022-09-28T18:21:34.271Z,17.61
2022-09-28T18:24:21.283Z,17.42
2022-09-28T18:27:02.168Z,17.71
2022-09-28T18:29:50.334Z,17.52
2022-09-28T18:32:31.038Z,17.72
2022-09-28T18:34:58.039Z,17.74
2022-09-28T18:37:25.098Z,17.55
2022-09-28T18:40:12.356Z,16.68
2022-09-28T18:42:52.929Z,17.89
2022-09-28T18:45:20.264Z,17.89
2022-09-28T18:47:47.628Z,17.78
2022-09-28T18:50:34.327Z,17.84
2022-09-28T18:53:15.054Z,17.66
2022-09-28T18:55:44.513Z,17.93
2022-09-28T18:58:12.132Z,17.22
2022-09-28T19:01:13.723Z,16.46
2022-09-28T19:04:23.339Z,17.29
2022-09-28T19:07:27.386Z,16.73
2022-09-28T19:10:12.851Z,17.79
2022-09-28T19:12:39.851Z,17.79
2022-09-28T19:15:07.747Z,16.66
2022-09-28T19:17:34.862Z,17.07
2022-09-28T19:20:02.141Z,17.20
2022-09-28T19:22:44.436Z,16.36
2022-09-28T19:25:41.576Z,16.94
2022-09-28T19:28:28.894Z,17.72
2022-09-28T19:31:09.591Z,17.73
2022-09-28T19:33:38.455Z,16.94
2022-09-28T19:36:13.602Z,17.70
2022-09-28T19:38:41.157Z,17.67
2022-09-28T19:41:50.326Z,17.55
2022-09-28T19:44:32.466Z,17.17
2022-09-28T19:47:07.066Z,17.22
2022-09-28T19:49:37.336Z,16.05
2022-09-28T19:52:17.233Z,16.84
2022-09-28T19:54:54.552Z,15.91
2022-09-28T19:57:22.724Z,16.70
2022-09-28T19:59:52.663Z,17.41
2022-09-28T20:02:20.928Z,17.33
2022-09-28T20:04:55.668Z,15.92
2022-09-28T20:07:42.353Z,16.72
2022-09-28T20:10:43.332Z,16.77
2022-09-28T20:13:41.134Z,16.83
2022-09-28T20:16:14.619Z,16.84
2022-09-28T20:18:49.887Z,16.51
2022-09-28T20:21:20.200Z,16.18
2022-09-28T20:24:11.418Z,16.78
2022-09-28T20:26:52.079Z,16.62
2022-09-28T20:29:39.381Z,16.80
2022-09-28T20:32:20.147Z,16.13
2022-09-28T20:34:47.484Z,15.78
2022-09-28T20:37:17.387Z,16.62
2022-09-28T20:39:45.231Z,16.37
2022-09-28T20:42:32.421Z,16.56
2022-09-28T20:45:33.431Z,16.20
2022-09-28T20:48:14.055Z,15.26
2022-09-28T20:50:42.799Z,15.89
2022-09-28T20:53:09.942Z,16.18
2022-09-28T20:55:37.267Z,15.96
2022-09-28T20:58:05.456Z,15.49
2022-09-28T21:00:32.804Z,16.78
2022-09-28T21:03:26.399Z,16.57
2022-09-28T21:06:28.449Z,16.86
2022-09-28T21:09:30.417Z,16.77
2022-09-28T21:12:11.114Z,16.93
2022-09-28T21:15:02.275Z,16.25
2022-09-28T21:17:46.000Z,16.40
2022-09-28T21:20:13.444Z,15.84
2022-09-28T21:23:00.469Z,16.78
2022-09-28T21:25:42.123Z,16.33
2022-09-28T21:28:09.213Z,16.47
2022-09-28T21:30:58.462Z,15.49
2022-09-28T21:33:39.056Z,16.57
2022-09-28T21:36:07.643Z,15.95
2022-09-28T21:38:41.726Z,15.28
2022-09-28T21:41:30.704Z,15.24
2022-09-28T21:44:11.295Z,16.28
2022-09-28T21:46:38.920Z,16.16
2022-09-28T21:49:07.812Z,15.92
2022-09-28T21:51:35.833Z,16.70
2022-09-28T21:54:03.255Z,16.04
2022-09-28T21:56:32.591Z,16.56
2022-09-28T21:59:01.443Z,15.93
2022-09-28T22:01:29.512Z,15.51
2022-09-28T22:03:57.244Z,16.21
2022-09-28T22:06:30.129Z,16.47
2022-09-28T22:08:57.847Z,16.02
2022-09-28T22:11:28.175Z,16.74
2022-09-28T22:14:08.466Z,16.75
2022-09-28T22:17:09.421Z,16.44
2022-09-28T22:20:10.400Z,16.38
2022-09-28T22:23:11.453Z,16.48
2022-09-28T22:26:07.776Z,15.42
2022-09-28T22:28:53.830Z,15.47
2022-09-28T22:31:24.578Z,15.99
2022-09-28T22:33:52.181Z,16.53
2022-09-28T22:36:20.076Z,15.93
2022-09-28T22:38:50.713Z,15.31
2022-09-28T22:41:22.595Z,14.96
2022-09-28T22:43:54.801Z,16.18
2022-09-28T22:46:25.406Z,16.13
2022-09-28T22:48:59.753Z,15.82
2022-09-28T22:51:46.478Z,15.97
2022-09-28T22:54:48.620Z,15.07
2022-09-28T22:57:29.804Z,15.60
2022-09-28T22:59:56.952Z,15.37
2022-09-28T23:02:24.296Z,15.92
2022-09-28T23:05:13.468Z,14.84
2022-09-28T23:08:15.498Z,15.72
2022-09-28T23:11:01.842Z,14.54
2022-09-28T23:13:31.203Z,14.59
2022-09-28T23:16:13.528Z,15.30
2022-09-28T23:19:07.477Z,15.81
2022-09-28T23:22:08.496Z,15.57
2022-09-28T23:25:09.574Z,15.88
2022-09-28T23:27:53.406Z,15.11
2022-09-28T23:30:40.448Z,14.12
2022-09-28T23:33:21.898Z,15.25
2022-09-28T23:35:49.568Z,14.47
2022-09-28T23:38:18.460Z,14.90
2022-09-28T23:40:46.815Z,14.01
2022-09-28T23:43:14.749Z,14.68
2022-09-28T23:45:43.928Z,14.68
2022-09-28T23:48:12.861Z,14.48
2022-09-28T23:50:40.095Z,14.61
2022-09-28T23:53:07.170Z,13.68
2022-09-28T23:55:34.429Z,14.32
2022-09-28T23:58:01.848Z,14.41
